Terminal Aerodrome Forecast
Issued by NWS Louisville, KY

Home | Current Version | Previous Version | Text Only | Print | Product List | Glossary On
Versions: 1 2 3 4 5 6 7 8 9 10 11 12 13 14 15 16 17 18 19 20 21 22 23 24 25 26
000
FTUS43 KLMK 240807 AAA
TAFBWG
TAF AMD
KBWG 240807Z 2408/2506 VRB05KT 4SM BR VCSH SCT007 OVC070
      TEMPO 2408/2410 2SM -SHRA BR BKN007
     FM241000 12004KT 5SM -SHRA OVC007
     FM241800 21012KT 6SM -SHRA VCTS OVC025CB
     FM250000 19012G22KT 5SM SHRA VCTS OVC025CB=

USA.gov is the U.S. government's official web portal to all federal, state and local government web resources and services.